Northwood, IA

7:50 PM CDT on April 26, 2017 (GMT -0500)
KMNGLENV5 | | Change Station

Elev 1320 ft 43.54 °N, 93.24 °W | Updated 5 minutes ago

Overcast
Overcast
37.2 °F
Feels Like 28 °F
N
15.9
Wind Variable Wind from NE
Gusts 19.0 mph

Today
High -- | Low -- °F
--% Chance of Precip.
Yesterday
High -- | Low -- °F
Precip. -- in
Pressure 29.56 in
Visibility 10.0 miles
Clouds Scattered Clouds 1400 ft
Mostly Cloudy 2000 ft
Overcast 3300 ft
Windchill 28 °F
Dew Point 27 °F
Humidity 66%
Rainfall 0.15 in
Snow Depth Not available.
6:12 AM 8:09 PM
New Moon, 0% visible
METAR KAEL 270035Z AUTO 31007KT 10SM SCT014 BKN020 OVC033 03/01 A2956 RMK AO2
Pressure 29.56 in
Visibility 10.0 miles
Clouds Scattered Clouds 1400 ft
Mostly Cloudy 2000 ft
Overcast 3300 ft
Windchill 28 °F
Dew Point 27 °F
Humidity 66%
Rainfall 0.15 in
Snow Depth Not available.
6:12 AM 8:09 PM
New Moon, 0% visible
METAR KAEL 270035Z AUTO 31007KT 10SM SCT014 BKN020 OVC033 03/01 A2956 RMK AO2

Get Severe Weather Alerts

Thanks for signing up!

Be on the lookout for a verification email in your inbox.

You'll start receiving the daily forecast at 8 AM.

×

10-Day Weather Forecast

Almanac

Astronomy

Apr. 26, 2017 Rise Set
Actual Time
Civil Twilight
Nautical Twilight
Astronomical Twilight
Moon
Length of Visible Light
Length of Day
Tomorrow will be .
, % of the Moon is Illuminated

Today's Extremes

State Highs State Lows

Community

WunderPhotos

WunderBlog® & News

Nearby

Air Quality

  Air Quality AQ Index Pollutant
Not available.

Snow Depth

Station Depth Elevation

Earthquake Activity

City Distance Mag. Time & Date
Minimum magnitude displayed is 2.5.

Coastal Water Temperatures

Place Temperature

Stations

Nearby Weather Stations

Station Location Temp. Windchill Dew Point Humidity Wind Precip. Elev Updated Type
                   

Watches & Warnings

There are currently no watches in effect.